Latest Weather Observations for Low Isles

IDQ60801

Issued at 7:42 pm EST Thursday 16 August 2018 (issued every 10 minutes, with the page automatically refreshed every 10 minutes)

About weather observations | Map of weather stations | Latest weather observations for QLD | Other Formats
Station Details ID: 031037 Name: LOW ISLES LIGHTHOUSE Lat: -16.38 Lon: 145.56 Height: 2.9 m
Data from the previous 72 hours. | See also: Recent months at Low Isles
Date/Time
EST
Temp
°C
App
Temp
°C
Dew
Point
°C
Rel
Hum
%
Delta-T
°C
Wind Press
QNH
hPa
Press
MSL
hPa
Rain since
9am
mm
Dir  Spd
km/h
Gust
km/h
Spd
kts
Gust
kts
16/07:30pm 23.0 22.6 19.0 78 2.5 ESE 19 24 10 13 1014.1 - 0.0
16/07:00pm 23.2 22.7 19.1 78 2.6 ESE 20 26 11 14 1013.7 - 0.0
16/06:30pm 23.3 23.1 18.4 74 3.1 ESE 17 24 9 13 1013.4 - 0.0
16/06:00pm 23.5 23.3 18.6 74 3.1 E 17 24 9 13 1013.4 1013.3 0.0
16/05:30pm 23.6 22.9 18.3 72 3.3 ESE 19 24 10 13 1013.4 - 0.0
16/05:00pm 24.1 23.2 18.3 70 3.7 E 20 26 11 14 1013.4 - 0.0
16/04:30pm 24.9 24.0 18.1 66 4.3 E 20 26 11 14 1013.3 - 0.0
16/04:00pm 25.2 23.7 17.7 63 4.7 E 22 28 12 15 1013.1 - 0.0
16/03:30pm 25.7 24.4 18.1 63 4.8 E 22 28 12 15 1013.4 - 0.0
16/03:00pm 24.9 23.7 18.3 66 4.2 E 22 28 12 15 1013.5 1013.4 0.0
16/02:30pm 25.6 24.4 19.3 68 4.0 E 24 30 13 16 1013.7 - 0.0
16/02:00pm 25.7 24.0 18.1 63 4.8 E 24 30 13 16 1014.1 - 0.0
16/01:30pm 25.7 24.7 17.9 62 4.9 ESE 20 28 11 15 1014.5 - 0.0
16/01:00pm 26.1 24.4 18.0 61 5.1 ESE 24 28 13 15 1014.9 - 0.0
16/12:30pm 26.2 24.4 17.8 60 5.3 SE 24 26 13 14 1015.2 - 0.0
16/12:00pm 25.6 24.0 17.5 61 5.1 ESE 22 26 12 14 1015.9 1015.8 0.0
16/11:30am 25.1 23.9 17.6 63 4.7 SE 20 24 11 13 1016.3 - 0.0
16/11:00am 24.8 23.7 17.8 65 4.4 SE 20 24 11 13 1016.7 - 0.0
16/10:30am 24.5 24.3 17.5 65 4.4 SSE 15 19 8 10 1017.0 - 0.0
16/10:00am 24.6 24.6 18.1 67 4.1 S 15 17 8 9 1017.2 - 0.0
16/09:30am 23.0 23.1 17.5 71 3.4 S 13 15 7 8 1017.2 - 0.0
16/09:00am 22.5 22.4 17.8 75 2.9 S 15 17 8 9 1016.9 1016.8 0.0
16/08:30am 22.0 21.5 17.8 77 2.6 S 17 17 9 9 1016.6 - 0.0
16/08:00am 21.7 21.0 17.3 76 2.7 S 17 20 9 11 1016.6 - 0.0
16/07:30am 21.7 20.8 17.7 78 2.5 S 19 24 10 13 1016.5 - 0.0
16/07:00am 21.6 21.2 17.2 76 2.7 S 15 20 8 11 1016.2 - 0.0
16/06:30am 21.6 21.2 17.2 76 2.7 S 15 19 8 10 1015.9 - 0.0
16/06:00am 21.5 21.0 16.9 75 2.8 S 15 19 8 10 1015.5 1015.4 0.0
16/05:30am 21.5 21.0 16.9 75 2.8 S 15 19 8 10 1015.3 - 0.0
16/05:00am 21.5 20.6 16.9 75 2.8 S 17 22 9 12 1015.0 - 0.0
16/04:30am 21.5 21.0 16.9 75 2.8 S 15 17 8 9 1015.0 - 0.0
16/04:00am 21.8 21.0 17.0 74 2.9 SSE 17 20 9 11 1015.3 - 0.0
16/03:30am 21.7 20.3 16.6 73 3.1 S 19 22 10 12 1015.3 - 0.0
16/03:00am 21.9 20.3 17.5 76 2.7 SSE 22 24 12 13 1015.5 1015.4 0.0
16/02:30am 21.7 19.8 17.7 78 2.5 SSE 24 28 13 15 1015.9 - 0.0
16/02:00am 22.0 19.5 18.0 78 2.5 SE 28 33 15 18 1016.0 - 0.0
16/01:30am 22.0 18.8 18.2 79 2.4 SE 32 39 17 21 1016.4 - 0.0
16/01:00am 22.0 18.5 18.0 78 2.5 SE 33 37 18 20 1016.7 - 0.0
16/12:30am 22.3 20.2 18.1 77 2.6 SE 26 30 14 16 1016.9 - 0.0
16/12:00am 22.2 19.5 18.4 79 2.4 SSE 30 33 16 18 1017.2 1017.1 0.0
 
Date/Time
EST
Temp
°C
App
Temp
°C
Dew
Point
°C
Rel
Hum
%
Delta-T
°C
Wind Press
QNH
hPa
Press
MSL
hPa
Rain since
9am
mm
Dir  Spd
km/h
Gust
km/h
Spd
kts
Gust
kts
15/11:30pm 22.2 19.7 18.8 81 2.1 SE 30 35 16 19 1017.5 - 0.0
15/11:00pm 22.1 19.0 18.5 80 2.3 SE 32 37 17 20 1017.4 - 0.0
15/10:30pm 22.5 20.4 18.9 80 2.3 ESE 28 35 15 19 1017.7 - 0.0
15/10:00pm 22.4 19.0 18.2 77 2.6 SE 33 39 18 21 1017.6 - 0.0
15/09:30pm 22.5 18.8 18.3 77 2.6 SE 35 43 19 23 1017.4 - 0.0
15/09:00pm 22.5 18.5 18.5 78 2.5 SE 37 44 20 24 1017.2 1017.1 0.0
15/08:30pm 22.6 18.5 18.2 76 2.8 ESE 37 46 20 25 1017.2 - 0.0
15/08:00pm 22.7 18.2 18.3 76 2.8 SE 39 44 21 24 1016.8 - 0.0
15/07:30pm 22.6 18.0 17.9 75 2.9 ESE 39 46 21 25 1016.7 - 0.0
15/07:00pm 22.6 18.0 17.9 75 2.9 SE 39 46 21 25 1016.3 - 0.0
15/06:30pm 22.5 18.4 18.3 77 2.6 SE 37 44 20 24 1016.1 - 0.0
15/06:00pm 22.8 18.2 17.9 74 3.0 ESE 39 44 21 24 1016.0 1015.9 0.0
15/05:30pm 22.9 18.2 17.8 73 3.2 ESE 39 46 21 25 1016.1 - 0.0
15/05:00pm 23.1 18.5 18.0 73 3.2 ESE 39 44 21 24 1015.9 - 0.0
15/04:30pm 23.6 19.6 17.6 69 3.7 ESE 35 44 19 24 1016.0 - 0.0
15/04:00pm 25.0 21.6 18.9 69 3.9 SE 35 41 19 22 1016.1 - 0.0
15/03:30pm 25.3 22.3 19.0 68 4.0 SE 33 39 18 21 1016.0 - 0.0
15/03:00pm 25.8 22.3 18.0 62 4.9 SE 33 39 18 21 1016.1 1016.0 0.0
15/02:30pm 24.7 21.1 17.2 63 4.7 SE 32 35 17 19 1016.4 - 0.0
15/02:00pm 27.1 23.8 17.0 54 6.3 ESE 30 37 16 20 1016.7 - 0.0
15/01:30pm 27.8 24.6 17.3 52 6.6 ESE 30 35 16 19 1017.2 - 0.0
15/01:00pm 26.9 23.8 16.5 53 6.4 ESE 28 39 15 21 1017.5 - 0.0
15/12:30pm 24.3 22.3 18.2 68 3.8 SE 26 32 14 17 1017.7 - 0.0
15/12:00pm 25.4 23.8 19.1 68 4.0 SE 26 30 14 16 1018.2 1018.1 0.0
15/11:30am 24.2 21.8 18.2 69 3.8 SE 28 33 15 18 1018.5 - 0.0
15/11:00am 24.0 22.0 18.2 70 3.6 SE 26 30 14 16 1019.1 - 0.0
15/10:30am 23.1 20.7 18.2 74 3.1 SE 28 33 15 18 1019.0 - 0.0
15/10:00am 22.6 19.4 18.2 76 2.8 SE 32 35 17 19 1019.1 - 0.0
15/09:30am 22.3 19.2 18.3 78 2.5 SE 32 35 17 19 1019.0 - 0.0
15/09:00am 21.6 18.8 18.2 81 2.1 SE 30 35 16 19 1018.6 1018.5 0.0
15/08:30am 21.4 17.9 17.8 80 2.2 SE 33 37 18 20 1018.3 - 0.0
15/08:00am 21.4 18.3 17.4 78 2.5 SE 30 35 16 19 1017.9 - 0.0
15/07:30am 21.4 17.1 17.0 76 2.7 SE 35 43 19 23 1017.6 - 0.0
15/07:00am 21.2 16.9 16.8 76 2.7 SE 35 39 19 21 1017.4 - 0.0
15/06:30am 21.0 16.7 17.0 78 2.4 SSE 35 41 19 22 1017.2 - 0.0
15/06:00am 20.8 16.2 17.2 80 2.2 SSE 37 41 20 22 1017.1 1017.0 0.0
15/05:30am 20.8 16.0 17.6 82 2.0 SE 39 46 21 25 1017.1 - 0.0
15/05:16am 21.0 16.7 17.8 82 2.0 SE 37 43 20 23 1017.1 - 0.0
15/05:00am 20.6 20.1 17.0 80 2.2 WSW 15 26 8 14 1017.1 - 0.0
15/04:30am 21.1 20.3 17.1 78 2.4 SSE 17 20 9 11 1016.9 - 0.0
15/04:00am 21.1 19.3 16.9 77 2.6 SSE 22 26 12 14 1017.2 - 0.0
15/03:30am 21.1 20.0 17.3 79 2.3 SSE 19 24 10 13 1017.4 - 0.0
15/03:00am 20.9 18.8 17.1 79 2.3 S 24 28 13 15 1017.6 1017.5 0.0
15/02:30am 20.8 18.2 16.8 78 2.4 SSE 26 30 14 16 1017.8 - 0.0
15/02:00am 20.9 18.4 17.1 79 2.3 SSE 26 30 14 16 1017.9 - 0.0
15/01:30am 21.3 17.5 16.7 75 2.8 SE 32 35 17 19 1018.3 - 0.0
15/01:00am 21.7 19.6 16.2 71 3.3 SSE 22 26 12 14 1018.5 - 0.0
15/12:30am 21.6 19.4 15.9 70 3.4 SE 22 28 12 15 1018.9 - 0.0
15/12:00am 21.4 18.5 15.0 67 3.8 SE 24 30 13 16 1019.1 1019.0 0.0
 
Date/Time
EST
Temp
°C
App
Temp
°C
Dew
Point
°C
Rel
Hum
%
Delta-T
°C
Wind Press
QNH
hPa
Press
MSL
hPa
Rain since
9am
mm
Dir  Spd
km/h
Gust
km/h
Spd
kts
Gust
kts
14/11:30pm 21.5 17.4 16.0 71 3.3 SE 32 37 17 20 1019.3 - 0.0
14/11:00pm 21.4 16.9 15.0 67 3.8 SE 32 35 17 19 1019.3 - 0.0
14/10:30pm 21.5 17.5 15.1 67 3.8 SE 30 33 16 18 1019.5 - 0.0
14/10:00pm 21.7 17.6 16.0 70 3.4 SE 32 37 17 20 1019.6 - 0.0
14/09:30pm 21.9 18.1 14.8 64 4.2 SE 28 41 15 22 1019.8 - 0.0
14/09:00pm 21.9 17.1 13.0 57 5.1 ESE 30 39 16 21 1019.8 1019.7 0.0
14/08:30pm 22.1 16.9 12.9 56 5.3 ESE 32 37 17 20 1019.6 - 0.0
14/08:00pm 22.3 16.0 12.3 53 5.7 SE 37 41 20 22 1019.3 - 0.0
14/07:30pm 22.3 16.1 11.4 50 6.1 SE 35 43 19 23 1018.9 - 0.0
14/07:00pm 21.8 16.2 12.1 54 5.5 SE 33 37 18 20 1018.8 - 0.0
14/06:30pm 21.5 16.3 13.4 60 4.7 SE 33 43 18 23 1018.7 - 0.0
14/06:00pm 21.9 16.2 11.0 50 6.0 ESE 32 39 17 21 1018.7 1018.6 0.0
14/05:30pm 22.2 15.5 8.3 41 7.3 SE 33 41 18 22 1018.5 - 0.0
14/05:00pm 22.3 16.4 12.5 53 5.6 SE 35 41 19 22 1018.4 - 0.0
14/04:30pm 22.8 17.5 13.0 54 5.6 SE 33 39 18 21 1018.3 - 0.0
14/04:00pm 23.6 16.8 12.0 48 6.6 ESE 39 46 21 25 1018.1 - 0.0
14/03:30pm 23.7 16.1 11.7 47 6.8 ESE 43 54 23 29 1018.2 - 0.0
14/03:00pm 23.9 16.9 12.5 49 6.5 ESE 41 54 22 29 1018.4 1018.3 0.0
14/02:30pm 24.6 17.8 13.2 49 6.6 ESE 41 52 22 28 1018.5 - 0.0
14/02:00pm 24.4 17.1 12.7 48 6.7 ESE 43 54 23 29 1018.8 - 0.0
14/01:30pm 24.6 17.8 14.4 53 6.0 ESE 43 54 23 29 1019.1 - 0.0
14/01:00pm 24.2 16.7 12.2 47 6.8 ESE 43 54 23 29 1019.5 - 0.0
14/12:30pm 24.4 17.6 13.0 49 6.6 ESE 41 52 22 28 1020.0 - 0.0
14/12:00pm 24.8 18.8 14.3 52 6.2 ESE 39 54 21 29 1020.3 1020.2 0.0
14/11:30am 24.0 17.3 15.2 58 5.3 ESE 44 54 24 29 1020.8 - 0.0
14/11:00am 23.8 17.0 14.2 55 5.7 ESE 43 54 23 29 1021.1 - 0.0
14/10:30am 23.4 16.5 15.5 61 4.7 SE 46 54 25 29 1021.0 - 0.0
14/10:00am 23.4 17.3 16.7 66 4.1 SE 44 56 24 30 1021.2 - 0.0
14/09:30am 22.5 16.9 16.5 69 3.6 SE 41 48 22 26 1021.1 - 0.0
14/09:00am 22.0 16.9 16.7 72 3.2 SE 39 46 21 25 1021.1 1021.0 0.0
14/08:30am 21.9 17.1 16.6 72 3.2 SSE 37 43 20 23 1020.9 - 0.0
14/08:00am 22.0 16.9 16.9 73 3.1 SE 39 43 21 23 1020.5 - 0.0
14/07:30am 21.8 16.6 16.5 72 3.2 SE 39 44 21 24 1020.0 - 0.0
14/07:00am 21.4 16.0 15.9 71 3.3 SSE 39 46 21 25 1019.7 - 0.0
14/06:30am 21.2 16.6 16.0 72 3.1 SSE 35 43 19 23 1019.6 - 0.0
14/06:00am 21.2 16.3 16.4 74 2.9 SSE 37 43 20 23 1019.3 1019.2 0.0
14/05:30am 21.4 16.7 16.8 75 2.8 SSE 37 44 20 24 1018.9 - 0.0
14/05:00am 21.4 17.1 16.8 75 2.8 SSE 35 41 19 22 1018.7 - 0.0
14/04:30am 21.6 18.0 17.2 76 2.7 SSE 32 39 17 21 1018.8 - 0.0
14/04:00am 21.7 18.6 17.5 77 2.6 SSE 30 37 16 20 1018.8 - 0.0
14/03:30am 21.8 18.4 17.6 77 2.6 SSE 32 37 17 20 1018.8 - 0.0
14/03:00am 21.9 19.4 18.1 79 2.4 SSE 28 32 15 17 1018.8 1018.7 0.0
14/02:30am 21.8 19.1 17.6 77 2.6 SSE 28 33 15 18 1019.0 - 0.0
14/02:00am 22.0 18.7 18.0 78 2.5 SSE 32 39 17 21 1019.2 - 0.0
14/01:30am 22.0 18.9 18.4 80 2.3 S 32 33 17 18 1019.4 - 0.0
14/01:00am 22.0 19.7 18.4 80 2.3 SSE 28 32 15 17 1019.7 - 0.0
14/12:30am 22.1 19.8 18.5 80 2.3 SSE 28 32 15 17 1019.8 - 0.0
14/12:00am 22.2 19.9 18.4 79 2.4 SSE 28 32 15 17 1020.0 1019.9 0.0
 
Date/Time
EST
Temp
°C
App
Temp
°C
Dew
Point
°C
Rel
Hum
%
Delta-T
°C
Wind Press
QNH
hPa
Press
MSL
hPa
Rain since
9am
mm
Dir  Spd
km/h
Gust
km/h
Spd
kts
Gust
kts
13/11:30pm 22.4 19.5 18.8 80 2.3 SSE 32 35 17 19 1020.0 - 0.0
13/11:00pm 22.4 20.2 18.8 80 2.3 SSE 28 33 15 18 1019.9 - 0.0
13/10:30pm 22.2 19.2 18.6 80 2.3 SSE 32 37 17 20 1019.9 - 0.0
13/10:00pm 22.4 19.3 18.8 80 2.3 SSE 33 41 18 22 1019.7 - 0.0
13/09:30pm 22.5 19.1 18.9 80 2.3 SE 35 41 19 22 1019.7 - 0.0
13/09:00pm 22.6 18.6 18.4 77 2.6 SE 37 44 20 24 1019.6 1019.5 0.0
13/08:30pm 22.4 18.6 18.2 77 2.6 SE 35 43 19 23 1019.6 - 0.0
13/08:00pm 22.5 18.4 18.3 77 2.6 SE 37 41 20 22 1019.1 - 0.0

Other Formats:

Comma delimited format used in spreadsheet applications
http://www.bom.gov.au/fwo/IDQ60801/IDQ60801.94285.axf

JavaScript Object Notation format (JSON) in row-major order
http://www.bom.gov.au/fwo/IDQ60801/IDQ60801.94285.json